Time;durP1;ratioP1;P1;durP2;ratioP2;P2;SDS_P1;SDS_P2;PMS_P1;PMS_P2;Temp;Humidity;BMP_temperature;BMP_pressure;BME280_temperature;BME280_humidity;BME280_pressure;Samples;Min_cycle;Max_cycle;Signal;HPM_P1;HPM_P2
2023/03/29 00:01:17;;;;;;;3.75;2.65;;;;;;;;;;4971974;28;98325;-76
2023/03/29 00:04:02;;;;;;;4.95;2.60;;;;;;;;;;4964404;28;99648;-76
2023/03/29 00:06:31;;;;;;;11.50;4.78;;;;;;;;;;4969255;28;98906;-76
2023/03/29 00:08:58;;;;;;;5.15;2.88;;;;;;;;;;4960199;28;99014;-75
2023/03/29 00:11:26;;;;;;;3.50;3.15;;;;;;;;;;4968895;28;100047;-76
2023/03/29 00:13:52;;;;;;;2.90;2.58;;;;;;;;;;4968491;28;98441;-76
2023/03/29 00:16:18;;;;;;;3.03;2.70;;;;;;;;;;4968680;28;99474;-77
2023/03/29 00:18:45;;;;;;;3.60;2.88;;;;;;;;;;4968742;28;99082;-76
2023/03/29 00:21:11;;;;;;;5.25;2.67;;;;;;;;;;4971843;28;98221;-76
2023/03/29 00:23:37;;;;;;;2.90;2.70;;;;;;;;;;4968714;28;98838;-75
2023/03/29 00:26:05;;;;;;;2.55;2.35;;;;;;;;;;4968529;28;98625;-76
2023/03/29 00:28:33;;;;;;;4.07;2.63;;;;;;;;;;4968923;28;99820;-75
2023/03/29 00:31:10;;;;;;;3.00;2.78;;;;;;;;;;4967815;28;98864;-76
2023/03/29 00:33:37;;;;;;;3.42;2.80;;;;;;;;;;4967965;28;98235;-75
2023/03/29 00:36:03;;;;;;;7.57;4.53;;;;;;;;;;4968693;28;98555;-76
2023/03/29 00:38:30;;;;;;;4.50;2.83;;;;;;;;;;4967673;28;99387;-75
2023/03/29 00:40:56;;;;;;;7.57;2.70;;;;;;;;;;4969165;28;98187;-75
2023/03/29 00:43:23;;;;;;;4.15;3.55;;;;;;;;;;4971075;28;98741;-76
2023/03/29 00:45:50;;;;;;;2.85;2.65;;;;;;;;;;4966757;28;98271;-76
2023/03/29 00:48:18;;;;;;;5.15;2.90;;;;;;;;;;4969347;28;100018;-75
2023/03/29 00:50:48;;;;;;;4.00;2.50;;;;;;;;;;4966654;28;98895;-75
2023/03/29 00:53:17;;;;;;;4.05;2.92;;;;;;;;;;4968689;28;98261;-75
2023/03/29 00:55:48;;;;;;;3.35;2.75;;;;;;;;;;4968901;28;98398;-76
2023/03/29 00:58:18;;;;;;;5.30;3.13;;;;;;;;;;4966312;28;98634;-76
2023/03/29 01:00:50;;;;;;;3.72;3.20;;;;;;;;;;4967838;28;98210;-76
2023/03/29 01:03:23;;;;;;;2.92;2.70;;;;;;;;;;4968988;28;98647;-75
2023/03/29 01:05:52;;;;;;;11.50;3.73;;;;;;;;;;4970375;28;99004;-76
2023/03/29 01:08:24;;;;;;;3.83;3.30;;;;;;;;;;4960563;28;98647;-75
2023/03/29 01:10:53;;;;;;;3.15;2.95;;;;;;;;;;4967687;28;98964;-75
2023/03/29 01:13:25;;;;;;;3.65;2.90;;;;;;;;;;4966703;28;98155;-75
2023/03/29 01:15:53;;;;;;;3.05;2.78;;;;;;;;;;4966534;28;100783;-76
2023/03/29 01:18:20;;;;;;;4.25;2.63;;;;;;;;;;4967971;28;99001;-76
2023/03/29 01:20:47;;;;;;;6.45;2.75;;;;;;;;;;4967005;28;98215;-75
2023/03/29 01:23:14;;;;;;;4.88;3.08;;;;;;;;;;4965370;28;100795;-75
2023/03/29 01:25:47;;;;;;;6.15;3.13;;;;;;;;;;4967824;28;99096;-75
2023/03/29 01:28:16;;;;;;;4.25;3.05;;;;;;;;;;4971155;28;98257;-75
2023/03/29 01:30:50;;;;;;;6.18;2.88;;;;;;;;;;4966511;28;101021;-76
2023/03/29 01:33:20;;;;;;;4.13;2.50;;;;;;;;;;4978352;28;98504;-75
2023/03/29 01:35:56;;;;;;;4.32;2.60;;;;;;;;;;4967599;28;99358;-75
2023/03/29 01:38:30;;;;;;;4.05;2.92;;;;;;;;;;4967690;28;99890;-75
2023/03/29 01:40:57;;;;;;;3.60;3.30;;;;;;;;;;4965908;28;98549;-76
2023/03/29 01:43:30;;;;;;;6.10;2.63;;;;;;;;;;4967576;28;98581;-76
2023/03/29 01:46:02;;;;;;;2.92;2.60;;;;;;;;;;4967189;28;99837;-75
2023/03/29 01:49:00;;;;;;;4.20;2.60;;;;;;;;;;4965145;28;98462;-76
2023/03/29 01:51:33;;;;;;;3.80;2.90;;;;;;;;;;4964482;28;98350;-76
2023/03/29 01:54:03;;;;;;;6.68;2.60;;;;;;;;;;4965506;28;98532;-75
2023/03/29 01:56:32;;;;;;;7.65;3.30;;;;;;;;;;4967297;28;98697;-75
2023/03/29 01:59:00;;;;;;;2.97;2.55;;;;;;;;;;4964957;28;98981;-76
2023/03/29 02:01:29;;;;;;;7.80;2.67;;;;;;;;;;4963483;28;98614;-76
2023/03/29 02:03:59;;;;;;;5.70;2.85;;;;;;;;;;4967738;28;98536;-75
2023/03/29 02:06:26;;;;;;;3.30;2.42;;;;;;;;;;4967822;28;98957;-75
2023/03/29 02:08:54;;;;;;;6.15;2.85;;;;;;;;;;4965573;28;98316;-76
2023/03/29 02:11:22;;;;;;;4.28;3.65;;;;;;;;;;4966032;28;100731;-76
2023/03/29 02:13:48;;;;;;;7.68;3.20;;;;;;;;;;4984775;28;101105;-76
2023/03/29 02:16:15;;;;;;;4.20;2.40;;;;;;;;;;4966942;28;98371;-76
2023/03/29 02:18:43;;;;;;;6.32;2.85;;;;;;;;;;4967196;28;99969;-76
2023/03/29 02:21:13;;;;;;;5.68;3.22;;;;;;;;;;4967363;28;98075;-75
2023/03/29 02:23:44;;;;;;;2.90;2.60;;;;;;;;;;4967097;28;99629;-75
2023/03/29 02:26:13;;;;;;;3.22;2.97;;;;;;;;;;4959222;28;98885;-75
2023/03/29 02:28:40;;;;;;;4.03;2.92;;;;;;;;;;4969558;28;98833;-75
2023/03/29 02:31:21;;;;;;;6.50;3.47;;;;;;;;;;4968962;28;102000;-75
2023/03/29 02:33:51;;;;;;;4.15;3.25;;;;;;;;;;4973239;28;100945;-75
2023/03/29 02:36:19;;;;;;;5.03;2.97;;;;;;;;;;4969732;28;99570;-75
2023/03/29 02:38:46;;;;;;;5.72;2.92;;;;;;;;;;4955312;28;99121;-75
2023/03/29 02:41:15;;;;;;;5.32;2.60;;;;;;;;;;4969479;28;98304;-75
2023/03/29 02:43:42;;;;;;;4.35;2.65;;;;;;;;;;4973133;28;100763;-75
2023/03/29 02:46:09;;;;;;;6.47;3.15;;;;;;;;;;4969018;28;100950;-75
2023/03/29 02:48:36;;;;;;;3.67;3.25;;;;;;;;;;4969308;28;98935;-75
2023/03/29 02:51:07;;;;;;;6.80;3.20;;;;;;;;;;4967561;28;100902;-75
2023/03/29 02:53:41;;;;;;;6.15;3.67;;;;;;;;;;4968795;28;101503;-75
2023/03/29 02:56:07;;;;;;;5.80;3.10;;;;;;;;;;4972905;28;98275;-76
2023/03/29 02:58:35;;;;;;;6.00;3.83;;;;;;;;;;4964683;28;101398;-75
2023/03/29 03:01:01;;;;;;;5.15;3.53;;;;;;;;;;4968659;28;98293;-75
2023/03/29 03:03:28;;;;;;;3.53;3.22;;;;;;;;;;4969583;28;98753;-75
2023/03/29 03:06:00;;;;;;;6.97;3.30;;;;;;;;;;4967778;28;101091;-75
2023/03/29 03:08:28;;;;;;;5.97;3.75;;;;;;;;;;4968868;28;99781;-75
2023/03/29 03:10:55;;;;;;;5.80;3.13;;;;;;;;;;4962271;28;98722;-75
2023/03/29 03:13:21;;;;;;;4.32;3.20;;;;;;;;;;4968392;28;101355;-75
2023/03/29 03:15:48;;;;;;;5.93;3.47;;;;;;;;;;4974315;28;98417;-75
2023/03/29 03:18:15;;;;;;;6.18;3.63;;;;;;;;;;4972427;28;99365;-75
2023/03/29 03:20:45;;;;;;;5.00;3.38;;;;;;;;;;4968653;28;98265;-75
2023/03/29 03:23:12;;;;;;;6.97;3.40;;;;;;;;;;4970035;28;98234;-75
2023/03/29 03:25:38;;;;;;;7.53;3.60;;;;;;;;;;4969071;28;99979;-75
2023/03/29 03:28:04;;;;;;;9.70;3.40;;;;;;;;;;4967589;28;99105;-75
2023/03/29 03:30:32;;;;;;;4.50;3.40;;;;;;;;;;4969581;28;101435;-75
2023/03/29 03:33:18;;;;;;;9.98;3.63;;;;;;;;;;4967552;28;98562;-75
2023/03/29 03:36:10;;;;;;;6.85;3.40;;;;;;;;;;4969923;28;98247;-75
2023/03/29 03:38:37;;;;;;;7.60;3.60;;;;;;;;;;4967219;28;100253;-75
2023/03/29 03:41:04;;;;;;;7.65;3.40;;;;;;;;;;4970037;28;101504;-75
2023/03/29 03:43:33;;;;;;;9.80;4.07;;;;;;;;;;4968438;28;101281;-75
2023/03/29 03:46:00;;;;;;;4.10;3.35;;;;;;;;;;4967765;28;100940;-75
2023/03/29 03:48:27;;;;;;;10.00;3.75;;;;;;;;;;4968069;28;98495;-75
2023/03/29 03:51:09;;;;;;;7.20;3.60;;;;;;;;;;4968658;28;100301;-75
2023/03/29 03:53:35;;;;;;;3.78;3.28;;;;;;;;;;4971902;28;100921;-75
2023/03/29 03:56:22;;;;;;;6.22;4.78;;;;;;;;;;4969562;28;98335;-75
2023/03/29 03:58:57;;;;;;;4.90;3.30;;;;;;;;;;4965696;28;98100;-75
2023/03/29 04:01:26;;;;;;;4.82;3.90;;;;;;;;;;4967201;28;101376;-75
2023/03/29 04:04:13;;;;;;;5.88;3.50;;;;;;;;;;4970437;28;98527;-75
2023/03/29 04:06:50;;;;;;;7.00;3.95;;;;;;;;;;4976343;28;101146;-75
2023/03/29 04:09:37;;;;;;;5.60;3.80;;;;;;;;;;4968567;28;98427;-75
2023/03/29 04:12:24;;;;;;;5.70;3.42;;;;;;;;;;4966260;28;98312;-75
2023/03/29 04:14:50;;;;;;;5.90;3.90;;;;;;;;;;4966901;28;101622;-76
2023/03/29 04:17:20;;;;;;;4.10;3.75;;;;;;;;;;4967950;28;98447;-75
2023/03/29 04:19:56;;;;;;;4.30;3.83;;;;;;;;;;4966768;28;99746;-75
2023/03/29 04:22:25;;;;;;;4.45;3.92;;;;;;;;;;4967098;28;101384;-76
2023/03/29 04:24:52;;;;;;;4.72;3.42;;;;;;;;;;4967637;28;98397;-76
2023/03/29 04:27:37;;;;;;;6.90;3.90;;;;;;;;;;4969694;28;98393;-75
2023/03/29 04:30:12;;;;;;;4.20;3.50;;;;;;;;;;4969550;28;98923;-75
2023/03/29 04:32:57;;;;;;;6.13;3.30;;;;;;;;;;4967591;28;100613;-75
2023/03/29 04:35:23;;;;;;;6.68;4.15;;;;;;;;;;4967767;28;101414;-76
2023/03/29 04:37:53;;;;;;;3.80;3.38;;;;;;;;;;4967175;28;98448;-75
2023/03/29 04:40:21;;;;;;;6.70;3.03;;;;;;;;;;4967640;28;101061;-75
2023/03/29 04:43:06;;;;;;;4.97;4.22;;;;;;;;;;4965217;28;99109;-75
2023/03/29 04:45:33;;;;;;;3.80;3.50;;;;;;;;;;4979695;28;98251;-75
2023/03/29 04:48:14;;;;;;;5.85;3.92;;;;;;;;;;4970551;28;100275;-75
2023/03/29 04:50:46;;;;;;;5.15;3.90;;;;;;;;;;4965606;28;98492;-76
2023/03/29 04:53:15;;;;;;;7.25;3.70;;;;;;;;;;4968037;28;101343;-75
2023/03/29 04:55:45;;;;;;;4.35;4.05;;;;;;;;;;4967428;28;98897;-76
2023/03/29 04:58:16;;;;;;;4.13;3.75;;;;;;;;;;4963772;28;100044;-75
2023/03/29 05:00:45;;;;;;;4.03;3.65;;;;;;;;;;4977629;28;100776;-75
2023/03/29 05:03:27;;;;;;;4.20;3.70;;;;;;;;;;4967951;28;100838;-75
2023/03/29 05:06:09;;;;;;;4.63;3.75;;;;;;;;;;4966560;28;98462;-75
2023/03/29 05:08:38;;;;;;;7.40;4.30;;;;;;;;;;4967545;28;100517;-75
2023/03/29 05:11:23;;;;;;;9.77;3.80;;;;;;;;;;4969105;28;100157;-76
2023/03/29 05:13:49;;;;;;;3.80;3.50;;;;;;;;;;4968401;28;99826;-76
2023/03/29 05:16:16;;;;;;;4.90;4.38;;;;;;;;;;4967119;28;101532;-75
2023/03/29 05:18:43;;;;;;;5.13;3.83;;;;;;;;;;4970662;28;98510;-76
2023/03/29 05:21:10;;;;;;;5.03;3.80;;;;;;;;;;4966889;28;101243;-75
2023/03/29 05:23:40;;;;;;;5.07;3.97;;;;;;;;;;4966212;28;100987;-76
2023/03/29 05:26:32;;;;;;;4.27;3.77;;;;;;;;;;4967283;28;98575;-75
2023/03/29 05:28:59;;;;;;;7.75;3.85;;;;;;;;;;4967156;28;100305;-75
2023/03/29 05:31:27;;;;;;;6.13;3.55;;;;;;;;;;4969545;28;98687;-75
2023/03/29 05:33:54;;;;;;;5.68;3.78;;;;;;;;;;4968901;28;98307;-75
2023/03/29 05:36:22;;;;;;;4.03;3.72;;;;;;;;;;4966155;28;101856;-75
2023/03/29 05:38:49;;;;;;;5.10;3.95;;;;;;;;;;4981062;28;98649;-76
2023/03/29 05:41:17;;;;;;;10.02;4.07;;;;;;;;;;4966924;28;100885;-75
2023/03/29 05:43:44;;;;;;;5.68;4.60;;;;;;;;;;4967870;28;98993;-75
2023/03/29 05:46:11;;;;;;;4.53;4.13;;;;;;;;;;4966342;28;98366;-75
2023/03/29 05:48:43;;;;;;;;;;;;;;;;;;4967424;28;100854;-75
2023/03/29 05:51:09;;;;;;;7.22;3.70;;;;;;;;;;4972211;28;130621;-74
2023/03/29 05:53:36;;;;;;;4.82;4.00;;;;;;;;;;4978636;28;98856;-79
2023/03/29 05:56:03;;;;;;;7.20;4.80;;;;;;;;;;4964711;28;99820;-76
2023/03/29 05:58:30;;;;;;;3.85;3.40;;;;;;;;;;4968849;28;98225;-76
2023/03/29 06:00:56;;;;;;;8.57;5.68;;;;;;;;;;4981278;28;101112;-76
2023/03/29 06:03:49;;;;;;;6.60;4.07;;;;;;;;;;4966877;28;99038;-76
2023/03/29 06:06:20;;;;;;;12.23;4.60;;;;;;;;;;4964424;28;98430;-76
2023/03/29 06:08:46;;;;;;;6.45;4.10;;;;;;;;;;4964896;28;98540;-76
2023/03/29 06:11:28;;;;;;;4.43;3.40;;;;;;;;;;4976491;28;99652;-75
2023/03/29 06:14:33;;;;;;;3.97;3.60;;;;;;;;;;4934133;28;98758;-76
2023/03/29 06:17:13;;;;;;;6.18;4.20;;;;;;;;;;4922337;28;98685;-75
2023/03/29 06:19:40;;;;;;;6.38;4.15;;;;;;;;;;4952469;28;101494;-75
2023/03/29 06:22:06;;;;;;;4.97;4.03;;;;;;;;;;4968433;28;101605;-75
2023/03/29 06:24:33;;;;;;;7.07;4.32;;;;;;;;;;4970244;28;101333;-74
2023/03/29 06:27:05;;;;;;;;;;;;;;;;;;4977944;28;98242;-74
2023/03/29 06:29:32;;;;;;;4.85;4.03;;;;;;;;;;4969729;28;112636;-75
2023/03/29 06:31:59;;;;;;;4.47;3.72;;;;;;;;;;4966043;28;101236;-75
2023/03/29 06:34:42;;;;;;;8.20;3.92;;;;;;;;;;4979268;28;98284;-74
2023/03/29 06:37:28;;;;;;;5.78;4.45;;;;;;;;;;4963691;28;99888;-75
2023/03/29 06:40:20;;;;;;;6.00;4.35;;;;;;;;;;4965052;28;99660;-74
2023/03/29 06:42:47;;;;;;;7.13;4.22;;;;;;;;;;4970661;28;98548;-75
2023/03/29 06:45:40;;;;;;;6.03;4.60;;;;;;;;;;4965317;28;99855;-75
2023/03/29 06:48:16;;;;;;;8.55;4.20;;;;;;;;;;4965116;28;100503;-75
2023/03/29 06:50:42;;;;;;;7.10;4.95;;;;;;;;;;4951034;28;100515;-75
2023/03/29 06:53:12;;;;;;;4.68;4.28;;;;;;;;;;4967676;28;101412;-74
2023/03/29 06:55:40;;;;;;;10.48;4.63;;;;;;;;;;4970681;28;99743;-73
2023/03/29 06:58:25;;;;;;;5.85;4.03;;;;;;;;;;4965393;28;99038;-74
2023/03/29 07:00:53;;;;;;;5.05;4.55;;;;;;;;;;4985279;28;100312;-74
2023/03/29 07:03:30;;;;;;;7.78;4.57;;;;;;;;;;4965438;28;99335;-75
2023/03/29 07:06:03;;;;;;;7.10;4.05;;;;;;;;;;4969155;28;100958;-75
2023/03/29 07:08:31;;;;;;;6.88;4.50;;;;;;;;;;4968453;28;98465;-74
2023/03/29 07:11:01;;;;;;;9.63;5.35;;;;;;;;;;4968776;28;101131;-74
2023/03/29 07:13:47;;;;;;;10.75;5.45;;;;;;;;;;4969832;28;98496;-75
2023/03/29 07:16:18;;;;;;;8.32;5.88;;;;;;;;;;4977405;28;98331;-75
2023/03/29 07:19:00;;;;;;;7.40;4.63;;;;;;;;;;4967920;28;100714;-75
2023/03/29 07:21:55;;;;;;;13.15;5.10;;;;;;;;;;4968424;28;100118;-75
2023/03/29 07:24:36;;;;;;;5.97;4.68;;;;;;;;;;4971988;28;98505;-75
2023/03/29 07:27:02;;;;;;;9.73;4.90;;;;;;;;;;4975797;28;100289;-75
2023/03/29 07:29:34;;;;;;;10.27;5.10;;;;;;;;;;4960282;28;98441;-74
2023/03/29 07:32:01;;;;;;;10.48;5.40;;;;;;;;;;4966186;28;100374;-74
2023/03/29 07:34:42;;;;;;;8.10;5.70;;;;;;;;;;4964631;28;98721;-74
2023/03/29 07:37:20;;;;;;;10.57;4.75;;;;;;;;;;4973373;28;99328;-75
2023/03/29 07:39:46;;;;;;;8.73;5.18;;;;;;;;;;4978170;28;100593;-74
2023/03/29 07:42:52;;;;;;;7.50;5.43;;;;;;;;;;4945237;28;98392;-75
2023/03/29 07:45:22;;;;;;;6.63;4.53;;;;;;;;;;4958086;28;100765;-75
2023/03/29 07:48:02;;;;;;;11.50;6.15;;;;;;;;;;4965464;28;98543;-75
2023/03/29 07:50:44;;;;;;;12.48;5.07;;;;;;;;;;4971377;28;99491;-75
2023/03/29 07:53:11;;;;;;;6.05;5.13;;;;;;;;;;4967833;28;101734;-75
2023/03/29 07:55:45;;;;;;;14.02;6.20;;;;;;;;;;4968241;28;101080;-75
2023/03/29 07:58:33;;;;;;;6.82;6.07;;;;;;;;;;4969116;28;98732;-75
2023/03/29 08:01:00;;;;;;;5.68;5.10;;;;;;;;;;4967522;28;100748;-75
2023/03/29 08:03:46;;;;;;;9.32;5.05;;;;;;;;;;4966868;28;98537;-76
2023/03/29 08:06:12;;;;;;;6.68;5.32;;;;;;;;;;4967705;28;98516;-75
2023/03/29 08:08:39;;;;;;;6.88;5.43;;;;;;;;;;4967601;28;99828;-75
2023/03/29 08:11:10;;;;;;;8.45;5.20;;;;;;;;;;4967300;28;100948;-75
2023/03/29 08:13:54;;;;;;;7.15;5.82;;;;;;;;;;4970116;28;98258;-76
2023/03/29 08:16:46;;;;;;;12.30;8.15;;;;;;;;;;4962875;28;99907;-75
2023/03/29 08:19:15;;;;;;;13.65;6.88;;;;;;;;;;4967952;28;98174;-75
2023/03/29 08:22:01;;;;;;;12.10;6.38;;;;;;;;;;4968166;28;99757;-75
2023/03/29 08:24:40;;;;;;;10.77;6.53;;;;;;;;;;4966884;28;101516;-75
2023/03/29 08:27:07;;;;;;;8.68;6.72;;;;;;;;;;4967781;28;98304;-75
2023/03/29 08:29:34;;;;;;;10.27;6.82;;;;;;;;;;4969292;28;98505;-75
2023/03/29 08:32:00;;;;;;;10.77;6.90;;;;;;;;;;4968576;28;99148;-75
2023/03/29 08:34:27;;;;;;;15.52;7.18;;;;;;;;;;4967482;28;98848;-74
2023/03/29 08:37:05;;;;;;;12.60;7.70;;;;;;;;;;4969453;28;98745;-75
2023/03/29 08:39:39;;;;;;;12.10;8.25;;;;;;;;;;4967963;28;98218;-75
2023/03/29 08:42:35;;;;;;;10.85;7.88;;;;;;;;;;4965442;28;98127;-75
2023/03/29 08:45:08;;;;;;;11.90;7.40;;;;;;;;;;4966616;28;101413;-74
2023/03/29 08:48:04;;;;;;;9.15;6.72;;;;;;;;;;4959968;28;98323;-75
2023/03/29 08:50:35;;;;;;;10.23;7.60;;;;;;;;;;4953051;28;99599;-75
2023/03/29 08:53:42;;;;;;;13.88;8.20;;;;;;;;;;4966952;28;100722;-75
2023/03/29 08:56:19;;;;;;;15.25;7.63;;;;;;;;;;4923852;28;99833;-75
2023/03/29 08:59:12;;;;;;;11.80;7.72;;;;;;;;;;4908216;28;100668;-75
2023/03/29 09:01:38;;;;;;;10.27;7.55;;;;;;;;;;4954888;28;98454;-75
2023/03/29 09:04:15;;;;;;;12.05;7.97;;;;;;;;;;4965326;28;100709;-74
2023/03/29 09:06:57;;;;;;;14.32;8.45;;;;;;;;;;4967194;28;98936;-74
2023/03/29 09:09:31;;;;;;;11.30;9.45;;;;;;;;;;4966787;28;98362;-75
2023/03/29 09:12:23;;;;;;;15.13;9.00;;;;;;;;;;4971761;28;99675;-76
2023/03/29 09:14:50;;;;;;;10.85;7.55;;;;;;;;;;4967668;28;98892;-75
2023/03/29 09:17:34;;;;;;;12.05;8.90;;;;;;;;;;4967891;28;100099;-76
2023/03/29 09:20:09;;;;;;;14.90;9.32;;;;;;;;;;4968176;28;100960;-76
2023/03/29 09:22:38;;;;;;;13.68;8.70;;;;;;;;;;4970589;28;98651;-74
2023/03/29 09:25:20;;;;;;;13.45;8.93;;;;;;;;;;4965860;28;100753;-76
2023/03/29 09:27:49;;;;;;;13.57;9.40;;;;;;;;;;4966415;28;101475;-76
2023/03/29 09:30:25;;;;;;;18.95;9.32;;;;;;;;;;4966322;28;98281;-76
2023/03/29 09:33:12;;;;;;;15.18;8.77;;;;;;;;;;4965982;28;100999;-76
2023/03/29 09:36:00;;;;;;;12.10;9.05;;;;;;;;;;4966174;28;99430;-76
2023/03/29 09:38:28;;;;;;;13.80;8.27;;;;;;;;;;4965903;28;99849;-75
2023/03/29 09:41:01;;;;;;;11.05;8.57;;;;;;;;;;4967120;28;100408;-75
2023/03/29 09:43:34;;;;;;;12.38;8.73;;;;;;;;;;4966968;28;99936;-75
2023/03/29 09:46:05;;;;;;;10.18;8.25;;;;;;;;;;4969380;28;99126;-75
2023/03/29 09:48:36;;;;;;;16.23;8.70;;;;;;;;;;4967861;28;99993;-75
2023/03/29 09:51:04;;;;;;;10.88;8.63;;;;;;;;;;4966277;28;98856;-76
2023/03/29 09:53:31;;;;;;;8.55;7.78;;;;;;;;;;4960839;28;100069;-75
2023/03/29 09:56:08;;;;;;;10.02;8.73;;;;;;;;;;4966662;28;101510;-76
2023/03/29 09:58:57;;;;;;;9.35;8.43;;;;;;;;;;4965550;28;99590;-75
2023/03/29 10:01:33;;;;;;;11.55;8.60;;;;;;;;;;4965892;28;100767;-75
2023/03/29 10:04:00;;;;;;;10.75;8.73;;;;;;;;;;4979492;28;101180;-76
2023/03/29 10:06:27;;;;;;;13.77;8.45;;;;;;;;;;4965348;28;98423;-76
2023/03/29 10:08:59;;;;;;;14.55;9.60;;;;;;;;;;4969452;28;100687;-76
2023/03/29 10:11:32;;;;;;;10.43;9.40;;;;;;;;;;4979476;28;98378;-75
2023/03/29 10:14:00;;;;;;;10.00;8.65;;;;;;;;;;4962818;28;99476;-74
2023/03/29 10:16:35;;;;;;;9.93;8.88;;;;;;;;;;4967022;28;98152;-75
2023/03/29 10:19:17;;;;;;;11.63;9.32;;;;;;;;;;4968459;28;98697;-76
2023/03/29 10:21:53;;;;;;;13.05;9.73;;;;;;;;;;4954737;28;99704;-75
2023/03/29 10:24:21;;;;;;;13.68;9.55;;;;;;;;;;4969924;28;100175;-75
2023/03/29 10:26:54;;;;;;;13.40;9.32;;;;;;;;;;4960277;28;98230;-75
2023/03/29 10:29:24;;;;;;;11.70;10.50;;;;;;;;;;4983033;28;98863;-75
2023/03/29 10:31:50;;;;;;;11.27;9.32;;;;;;;;;;4970348;28;99691;-74
2023/03/29 10:34:17;;;;;;;10.98;9.43;;;;;;;;;;4970825;28;99419;-75
2023/03/29 10:36:47;;;;;;;16.25;9.80;;;;;;;;;;4967980;28;99133;-75
2023/03/29 10:39:15;;;;;;;11.48;9.38;;;;;;;;;;4973779;28;98389;-74
2023/03/29 10:41:43;;;;;;;10.63;9.07;;;;;;;;;;4983613;28;98708;-74
2023/03/29 10:44:24;;;;;;;9.57;8.68;;;;;;;;;;4969287;28;100074;-75
2023/03/29 10:46:50;;;;;;;11.13;9.55;;;;;;;;;;4967418;28;98208;-74
2023/03/29 10:49:18;;;;;;;10.88;9.23;;;;;;;;;;4982285;28;99509;-74
2023/03/29 10:51:45;;;;;;;10.02;9.02;;;;;;;;;;4981485;28;99024;-74
2023/03/29 10:54:13;;;;;;;11.40;8.75;;;;;;;;;;4977694;28;98437;-74
2023/03/29 10:56:45;;;;;;;9.50;8.68;;;;;;;;;;4970874;28;99987;-74
2023/03/29 10:59:13;;;;;;;;;;;;;;;;;;4974064;28;98462;-74
2023/03/29 11:01:39;;;;;;;20.70;9.93;;;;;;;;;;4973235;28;124813;-74
2023/03/29 11:04:06;;;;;;;12.18;9.80;;;;;;;;;;4973772;28;99137;-74
2023/03/29 11:06:46;;;;;;;13.20;9.68;;;;;;;;;;4974164;28;98897;-74
2023/03/29 11:09:22;;;;;;;10.38;9.38;;;;;;;;;;4972971;28;98681;-74
2023/03/29 11:12:08;;;;;;;10.82;8.63;;;;;;;;;;4975498;28;98841;-75
2023/03/29 11:15:00;;;;;;;10.73;9.35;;;;;;;;;;4991940;28;98146;-74
2023/03/29 11:17:36;;;;;;;10.07;9.02;;;;;;;;;;4986153;28;99030;-74
2023/03/29 11:20:11;;;;;;;16.23;9.65;;;;;;;;;;4955017;28;98247;-74
2023/03/29 11:22:50;;;;;;;18.23;11.00;;;;;;;;;;4958350;28;99296;-74
2023/03/29 11:25:23;;;;;;;13.18;9.90;;;;;;;;;;4961748;28;99831;-74
2023/03/29 11:27:52;;;;;;;;;;;;;;;;;;4977605;28;98045;-74
2023/03/29 11:30:30;;;;;;;14.27;10.13;;;;;;;;;;4958462;28;129116;-74
2023/03/29 11:33:05;;;;;;;11.02;9.93;;;;;;;;;;4969412;28;99026;-74
2023/03/29 11:35:31;;;;;;;12.55;10.77;;;;;;;;;;4966541;28;98286;-74
2023/03/29 11:38:17;;;;;;;18.40;10.43;;;;;;;;;;4973729;28;99336;-75
2023/03/29 11:40:43;;;;;;;11.60;10.18;;;;;;;;;;4969414;28;98241;-75
2023/03/29 11:43:30;;;;;;;14.18;11.18;;;;;;;;;;4977819;28;98913;-74
2023/03/29 11:46:01;;;;;;;15.40;11.65;;;;;;;;;;4967021;28;99034;-74
2023/03/29 11:48:33;;;;;;;15.77;11.85;;;;;;;;;;4973825;28;98212;-74
2023/03/29 11:51:06;;;;;;;14.48;11.77;;;;;;;;;;4973151;28;99678;-75
2023/03/29 11:53:55;;;;;;;14.13;11.57;;;;;;;;;;4980422;28;100166;-74
2023/03/29 11:56:26;;;;;;;12.32;11.02;;;;;;;;;;4980569;28;99129;-74
2023/03/29 11:58:56;;;;;;;13.60;11.13;;;;;;;;;;4973041;28;99469;-74
2023/03/29 12:01:29;;;;;;;15.48;11.68;;;;;;;;;;4972935;28;98982;-77
2023/03/29 12:03:57;;;;;;;14.57;11.20;;;;;;;;;;4958915;28;99359;-77
2023/03/29 12:06:36;;;;;;;15.82;12.55;;;;;;;;;;4960130;28;100114;-77
2023/03/29 12:09:08;;;;;;;12.05;10.75;;;;;;;;;;4965033;28;100161;-76
2023/03/29 12:11:53;;;;;;;14.90;11.50;;;;;;;;;;4986779;28;100605;-77
2023/03/29 12:14:24;;;;;;;15.20;12.70;;;;;;;;;;4964237;28;98910;-76
2023/03/29 12:16:57;;;;;;;17.75;12.27;;;;;;;;;;4977485;28;98225;-76
2023/03/29 12:19:34;;;;;;;14.05;12.45;;;;;;;;;;4969620;28;98676;-76
2023/03/29 12:22:07;;;;;;;16.27;12.88;;;;;;;;;;4967760;28;102177;-76
2023/03/29 12:24:39;;;;;;;16.65;12.75;;;;;;;;;;4970450;28;98416;-77
2023/03/29 12:27:07;;;;;;;16.38;14.38;;;;;;;;;;4971528;28;99972;-76
2023/03/29 12:29:40;;;;;;;15.43;13.50;;;;;;;;;;4979057;28;98241;-77
2023/03/29 12:32:20;;;;;;;15.82;14.38;;;;;;;;;;4972728;28;98910;-76
2023/03/29 12:35:29;;;;;;;16.38;14.68;;;;;;;;;;4960776;28;101260;-76
2023/03/29 12:38:24;;;;;;;20.30;15.32;;;;;;;;;;4954348;28;98218;-76
2023/03/29 12:41:14;;;;;;;13.70;12.30;;;;;;;;;;4958157;28;98189;-76
2023/03/29 12:44:00;;;;;;;21.58;15.27;;;;;;;;;;4952666;28;98523;-75
2023/03/29 12:46:35;;;;;;;16.08;14.32;;;;;;;;;;4961643;28;98431;-74
2023/03/29 12:49:28;;;;;;;18.60;14.82;;;;;;;;;;4966643;28;99314;-76
2023/03/29 12:51:56;;;;;;;16.05;14.40;;;;;;;;;;4957560;28;98412;-75
2023/03/29 12:54:24;;;;;;;19.45;14.50;;;;;;;;;;4958868;28;100427;-75
2023/03/29 12:56:57;;;;;;;17.80;14.40;;;;;;;;;;4958068;28;98961;-75
2023/03/29 12:59:24;;;;;;;18.10;15.95;;;;;;;;;;4957216;28;100827;-75
2023/03/29 13:01:56;;;;;;;19.98;15.32;;;;;;;;;;4956672;28;100074;-75
2023/03/29 13:04:43;;;;;;;18.05;14.57;;;;;;;;;;4957033;28;99720;-75
2023/03/29 13:07:13;;;;;;;19.38;15.48;;;;;;;;;;4955680;28;98274;-75
2023/03/29 13:09:53;;;;;;;20.08;15.88;;;;;;;;;;4953937;28;99595;-75
2023/03/29 13:12:27;;;;;;;20.33;15.73;;;;;;;;;;4965226;28;100006;-75
2023/03/29 13:14:58;;;;;;;17.55;15.82;;;;;;;;;;4957129;28;98933;-76
2023/03/29 13:18:00;;;;;;;19.70;16.13;;;;;;;;;;4962446;28;100073;-76
2023/03/29 13:20:29;;;;;;;18.88;15.13;;;;;;;;;;4968769;28;98247;-76
2023/03/29 13:23:14;;;;;;;18.52;15.13;;;;;;;;;;4963899;28;98671;-75
2023/03/29 13:25:43;;;;;;;16.77;14.95;;;;;;;;;;4957731;28;100099;-75
2023/03/29 13:28:28;;;;;;;19.45;14.43;;;;;;;;;;4968701;28;98128;-75
2023/03/29 13:31:00;;;;;;;17.15;14.73;;;;;;;;;;4969934;28;100270;-75
2023/03/29 13:33:45;;;;;;;16.88;15.13;;;;;;;;;;4961250;28;100384;-75
2023/03/29 13:36:29;;;;;;;18.42;15.35;;;;;;;;;;4959384;28;99228;-74
2023/03/29 13:39:00;;;;;;;16.77;15.13;;;;;;;;;;4947892;28;100191;-74
2023/03/29 13:41:39;;;;;;;17.63;14.65;;;;;;;;;;4960546;28;98256;-74
2023/03/29 13:44:17;;;;;;;16.90;15.23;;;;;;;;;;4967625;28;99020;-74
2023/03/29 13:46:46;;;;;;;16.10;14.48;;;;;;;;;;4968498;28;99187;-76
2023/03/29 13:49:15;;;;;;;22.02;15.80;;;;;;;;;;4962818;28;98605;-75
2023/03/29 13:51:47;;;;;;;16.98;14.85;;;;;;;;;;4968339;28;98592;-75
2023/03/29 13:54:34;;;;;;;20.40;14.63;;;;;;;;;;4968356;28;99071;-76
2023/03/29 13:57:00;;;;;;;16.73;14.27;;;;;;;;;;4975163;28;98234;-76
2023/03/29 13:59:31;;;;;;;15.25;13.73;;;;;;;;;;4972110;28;98971;-76
2023/03/29 14:01:59;;;;;;;19.00;14.38;;;;;;;;;;4976246;28;98889;-75
2023/03/29 14:04:27;;;;;;;16.05;14.43;;;;;;;;;;4964775;28;99299;-75
2023/03/29 14:06:55;;;;;;;18.17;14.27;;;;;;;;;;4970224;28;100527;-75
2023/03/29 14:09:24;;;;;;;16.25;14.55;;;;;;;;;;4985513;28;98231;-76
2023/03/29 14:11:51;;;;;;;15.80;14.15;;;;;;;;;;4969973;28;99487;-76
2023/03/29 14:14:20;;;;;;;16.60;14.90;;;;;;;;;;4984926;28;98902;-75
2023/03/29 14:16:47;;;;;;;18.10;14.00;;;;;;;;;;4986567;28;98574;-77
2023/03/29 14:19:34;;;;;;;13.52;12.25;;;;;;;;;;4975015;28;99805;-75
2023/03/29 14:22:01;;;;;;;16.17;13.43;;;;;;;;;;4958722;28;98218;-74
2023/03/29 14:24:37;;;;;;;17.60;13.52;;;;;;;;;;4969773;28;99394;-77
2023/03/29 14:27:04;;;;;;;16.65;12.95;;;;;;;;;;4984233;28;99014;-75
2023/03/29 14:29:31;;;;;;;15.13;13.15;;;;;;;;;;4972389;28;100261;-75
2023/03/29 14:32:18;;;;;;;16.00;12.25;;;;;;;;;;4974748;28;98644;-74
2023/03/29 14:34:48;;;;;;;15.00;12.18;;;;;;;;;;4959232;28;100113;-75
2023/03/29 14:37:17;;;;;;;15.05;13.38;;;;;;;;;;4962502;28;98195;-76
2023/03/29 14:39:44;;;;;;;14.52;12.93;;;;;;;;;;4967286;28;99794;-75
2023/03/29 14:42:15;;;;;;;16.95;13.65;;;;;;;;;;4981101;28;99248;-75
2023/03/29 14:44:41;;;;;;;15.32;12.77;;;;;;;;;;4980411;28;98849;-75
2023/03/29 14:47:13;;;;;;;18.23;12.18;;;;;;;;;;4977766;28;100059;-74
2023/03/29 14:49:40;;;;;;;13.43;11.55;;;;;;;;;;4976550;28;98647;-77
2023/03/29 14:52:08;;;;;;;13.23;11.90;;;;;;;;;;4971105;28;99484;-76
2023/03/29 14:54:35;;;;;;;13.70;12.23;;;;;;;;;;4971961;28;98797;-77
2023/03/29 14:57:02;;;;;;;12.75;11.45;;;;;;;;;;4977343;28;98182;-77
2023/03/29 14:59:40;;;;;;;17.30;11.52;;;;;;;;;;4974365;28;99611;-77
2023/03/29 15:02:27;;;;;;;11.55;10.45;;;;;;;;;;4973392;28;100146;-76
2023/03/29 15:05:04;;;;;;;11.05;9.98;;;;;;;;;;4971837;28;98305;-76
2023/03/29 15:07:31;;;;;;;12.23;10.75;;;;;;;;;;4967601;28;99210;-76